WetterOnline ( https://www.wetteronline.de )

Wetter aktuell PLZ Bereich 19300

Aktuelles Wetter: Marnitz (87m)

6-stündlich | Neueste Meldungen
Ortszeit Temperatur Wetter
So, 16.06. 2:00 15.5° C bedeckt
Sa, 15.06. 20:00 22.7° C wolkenlos
Sa, 15.06. 14:00 27.2° C bewölkt
Sa, 15.06. 8:00 22.9° C bewölkt
Sa, 15.06. 2:00 19.4° C wolkig
Fr, 14.06. 20:00 25.3° C wolkig
Fr, 14.06. 14:00 26.7° C wolkenlos
Fr, 14.06. 8:00 16.9° C wolkenlos
Ortszeit Temperatur Wetter
So, 16.06. 6:10 14.0° C wolkenlos
So, 16.06. 6:00 14.1° C fast wolkenlos
So, 16.06. 5:50 14.1° C fast wolkenlos
So, 16.06. 5:40 14.0° C leicht bewölkt
So, 16.06. 5:30 14.3° C bewölkt
So, 16.06. 5:20 14.3° C bewölkt
So, 16.06. 5:00 14.6° C bewölkt
So, 16.06. 4:30 15.0° C bedeckt
So, 16.06. 4:00 15.1° C bewölkt
So, 16.06. 3:30 15.1° C bedeckt
So, 16.06. 3:00 15.3° C bewölkt
Ortszeit Relative Feuchte Sichtweite
So, 16.06. 2:00 78% 70 km
Sa, 15.06. 20:00 61% 40 km
Sa, 15.06. 14:00 62% 16 km
Sa, 15.06. 8:00 71% 14 km
Sa, 15.06. 2:00 81% 23 km
Fr, 14.06. 20:00 42% 70 km
Fr, 14.06. 14:00 38% 55 km
Fr, 14.06. 8:00 74% 50 km
Ortszeit Relative Feuchte Sichtweite
So, 16.06. 6:10 83% -
So, 16.06. 6:00 84% 45 km
So, 16.06. 5:50 84% -
So, 16.06. 5:40 84% -
So, 16.06. 5:30 84% 45 km
So, 16.06. 5:20 84% -
So, 16.06. 5:00 81% 60 km
So, 16.06. 4:30 79% 65 km
So, 16.06. 4:00 79% 65 km
So, 16.06. 3:30 78% 70 km
So, 16.06. 3:00 79% 70 km
Ortszeit Niederschlagsmenge Niederschlagsart
So, 16.06. 2:00 0.0 l/m2 in 6 Std. -
Sa, 15.06. 20:00 0.2 l/m2 in 12 Std. Regen
Sa, 15.06. 14:00 0.1 l/m2 in 6 Std. Regen
Sa, 15.06. 8:00 0.5 l/m2 in 12 Std. Regen
Sa, 15.06. 2:00 0.5 l/m2 in 6 Std. Regen
Fr, 14.06. 20:00 0.0 l/m2 in 12 Std. -
Fr, 14.06. 14:00 0.0 l/m2 in 6 Std. -
Fr, 14.06. 8:00 4 l/m2 in 12 Std. -
Ortszeit Niederschlagsmenge Niederschlagsart
So, 16.06. 6:10 keine Meldung -
So, 16.06. 6:00 0.0 l/m2 in 1 Std. -
So, 16.06. 5:50 keine Meldung -
So, 16.06. 5:40 keine Meldung -
So, 16.06. 5:30 0.0 l/m2 in 1 Std. -
So, 16.06. 5:20 keine Meldung -
So, 16.06. 5:00 0.0 l/m2 in 1 Std. -
So, 16.06. 4:30 0.0 l/m2 in 1 Std. -
So, 16.06. 4:00 0.0 l/m2 in 1 Std. -
So, 16.06. 3:30 0.0 l/m2 in 1 Std. -
So, 16.06. 3:00 0.0 l/m2 in 1 Std. -
Ortszeit Stärke Spitze Richtung
km/h Bft. km/h Grad Sektor
So, 16.06. 2:00 20 4 39 320° NW
Sa, 15.06. 20:00 17 3 44 300° NW
Sa, 15.06. 14:00 11 2 40 180° S
Sa, 15.06. 8:00 19 3 37 130° SO
Sa, 15.06. 2:00 4 1 47 110° O
Fr, 14.06. 20:00 7 2 36 160° S
Fr, 14.06. 14:00 15 3 31 180° S
Fr, 14.06. 8:00 11 2 22 150° SO
Ortszeit Stärke Spitze Richtung
km/h Bft. km/h Grad Sektor
So, 16.06. 6:10 7 2 - 300° NW
So, 16.06. 6:00 6 1 17 300° NW
So, 16.06. 5:50 6 1 - 300° NW
So, 16.06. 5:40 9 2 - 300° NW
So, 16.06. 5:30 7 2 11 320° NW
So, 16.06. 5:20 7 2 - 320° NW
So, 16.06. 5:00 9 2 22 320° NW
So, 16.06. 4:30 11 2 22 320° NW
So, 16.06. 4:00 14 3 32 320° NW
So, 16.06. 3:30 17 3 31 330° NW
So, 16.06. 3:00 15 3 30 320° NW
Ortszeit Untergrenze Bedeckung Gattung
total tief tief mittel hoch
So, 16.06. 2:00 510 m 8/8 8/8 - - -
Sa, 15.06. 20:00 - 0/8 0/8 - - -
Sa, 15.06. 14:00 960 m 7/8 7/8 - - -
Sa, 15.06. 8:00 4200 m 8/8 7/8 - - -
Sa, 15.06. 2:00 2100 m 8/8 1/8 - - -
Fr, 14.06. 20:00 8100 m 8/8 0/8 - - -
Fr, 14.06. 14:00 - 0/8 0/8 - - -
Fr, 14.06. 8:00 - 0/8 0/8 - - -
Ortszeit Bedeckungsgrad in Achtel und Wolkenuntergrenze
So, 16.06. 6:10 keine Wolken
So, 16.06. 6:00 1(510m)
So, 16.06. 5:50 1(510m)
So, 16.06. 5:40 3(510m)
So, 16.06. 5:30 7(510m)
So, 16.06. 5:20 7(510m)
So, 16.06. 5:00 7(510m)
So, 16.06. 4:30 8(510m)
So, 16.06. 4:00 7(510m)
So, 16.06. 3:30 8(510m)
So, 16.06. 3:00 7(510m)
Ortszeit Luftdruck NN (hPa) Tendenz (hPa in 3 Std.)
So, 16.06. 2:00 1016 + 1,8
Sa, 15.06. 20:00 1011 + 1,5
Sa, 15.06. 14:00 1008 - 0,2
Sa, 15.06. 8:00 1009 - 2,2
Sa, 15.06. 2:00 1015 - 1,6
Fr, 14.06. 20:00 1015 - 0,4
Fr, 14.06. 14:00 1017 - 0,9
Fr, 14.06. 8:00 1018 + 1,1
Ortszeit Luftdruck NN (hPa) Tendenz (hPa in 3 Std.)
So, 16.06. 6:10 1018 keine Meldung
So, 16.06. 6:00 1018 + 1,0
So, 16.06. 5:50 1018 keine Meldung
So, 16.06. 5:40 1017 keine Meldung
So, 16.06. 5:30 1017 + 0,6
So, 16.06. 5:20 1017 keine Meldung
So, 16.06. 5:00 1017 + 0,7
So, 16.06. 4:30 1017 + 0,7
So, 16.06. 4:00 1017 + 0,9
So, 16.06. 3:30 1017 + 1,3
So, 16.06. 3:00 1017 + 1,3
Ortszeit Schneehöhe (cm)
So, 16.06. 2:00 -
Sa, 15.06. 20:00 -
Sa, 15.06. 14:00 -
Sa, 15.06. 8:00 -
Sa, 15.06. 2:00 -
Fr, 14.06. 20:00 -
Fr, 14.06. 14:00 -
Fr, 14.06. 8:00 -
Ortszeit Schneehöhe (cm)
So, 16.06. 6:10 -
So, 16.06. 6:00 -
So, 16.06. 5:50 -
So, 16.06. 5:40 -
So, 16.06. 5:30 -
So, 16.06. 5:20 -
So, 16.06. 5:00 -
So, 16.06. 4:30 -
So, 16.06. 4:00 -
So, 16.06. 3:30 -
So, 16.06. 3:00 -
Link zu dieser Seite / Seite empfehlen

Das Wetter in ...